메인 페이지
METAR-TAF:

METAR-TAF

공항 :

팔마데마요르카, 스페인

위도: 39-33N, 경도: 002-44E, 고도: 4m

현재 날씨관측

예보는 33분 전, 18:00시(UTC)에 발표되었습니다.
남남서3kt
온도 13°C
습도 67%
기압 1025 hPa
시정 10km 이상
고도 3000ft 상공 구름 조금
고도 5000ft 상공 구름 보통

METAR: LEPA 201800Z 21003KT 9999 FEW030 SCT050 13/07 Q1025 NOSIG

시각: 19:33 (18:33 UTC)

예보

예보는 1 시간 33분 전, 17:00시(UTC)에 발표되었습니다.
예보 대상 시간: 20일 18시부터 21일 18시까지 (UTC)
남서10kt
시정 10km 이상
고도 2500ft 상공 구름 조금
전환 중
20일 18시부터 20일 20시까지 (UTC)
북동6kt
전환 중
21일 10시부터 21일 12시까지 (UTC)
남서10kt

TAF: LEPA 201700Z 2018/2118 22010KT 9999 FEW025 TX17/2112Z TN03/2106Z BECMG 2018/2020 04006KT BECMG 2110/2112 22010KT

4,000개 이상의 공항 관측 자료 및 예보 (METAR 및 TAF 보고).

지도상에서 검색 가능한 기상관측소가 노란 점과 빨간 점으로 표시되어 있습니다.

기상관측소 명을 보려면 표시 위로 마우스를 이동하세요.

날씨 관측과 예보를 보려면 클릭하세요.

지도 변경 : 확대하려면 엑스 표시가 있는 녹색 버튼, 축소하려면 빼기 표시가 있는 녹색 버튼, 다음 페이지의 지도를 보려면 녹색 화살표를 클릭하세요.


METAR-TAF: